メインページ
METAR-TAF:

METAR-TAF

空港 :

岡山空港

岡山, 日本

緯度: 34-45N, 経度: 133-51E, 海抜: 241m

現時点の気象観測

当レポートは42分前の22:00(UTC)に作成
変向風 2kt
気温 11°C
湿度 82%
気圧 1018 hPa
視程10km以上
高度1500ftの雲はほとんどない
高度7000ftの千切れ雲あり

METAR: RJOB 162200Z VRB02KT 9999 FEW015 BKN070 11/08 Q1018

時間: 07:42 (22:42 UTC)

予報

当レポートは5時間35分前の17:07(UTC)に作成
予報は16日の 18時(UTC)から 18日の 00時(UTC)まで有効
の風 5kt
視程10km以上
高度2000ftの雲はほとんどない
高度4500ftの雲は散在している

TAF: RJOB 161707Z 1618/1800 36005KT 9999 FEW020 SCT045

4,000以上の空港の気象観測と天気予報(METAR報とTAF報)

利用可能な観測所は地図上に黄色い丸と赤い丸で示す。

丸の上にカーソルを重ねると観測所名を参照できる。

次にクリックすると気象観測と天気予報を参照できる。

マップの切り替え:黒色「×」印の緑ボタンをクリックして拡大、「-」印の緑ボタンをクリックして縮小、緑色の三角印をクリックして隣りの地図に切り替え


METAR-TAF: